sensor_id;sensor_type;location;lat;lon;timestamp;temperature;humidity
17236;DHT22;8734;59.272;17.780;2022-12-29T00:01:09;1.70;99.90
17236;DHT22;8734;59.272;17.780;2022-12-29T00:03:39;1.60;99.90
17236;DHT22;8734;59.272;17.780;2022-12-29T00:06:07;1.60;99.90
17236;DHT22;8734;59.272;17.780;2022-12-29T00:08:35;1.60;99.90
17236;DHT22;8734;59.272;17.780;2022-12-29T00:11:11;1.60;99.90
17236;DHT22;8734;59.272;17.780;2022-12-29T00:13:41;1.60;99.90
17236;DHT22;8734;59.272;17.780;2022-12-29T00:16:27;1.60;99.90
17236;DHT22;8734;59.272;17.780;2022-12-29T00:18:57;1.60;99.90
17236;DHT22;8734;59.272;17.780;2022-12-29T00:21:26;1.60;99.90
17236;DHT22;8734;59.272;17.780;2022-12-29T00:24:14;1.60;99.90
17236;DHT22;8734;59.272;17.780;2022-12-29T00:27:10;1.60;99.90
17236;DHT22;8734;59.272;17.780;2022-12-29T00:29:57;1.70;99.90
17236;DHT22;8734;59.272;17.780;2022-12-29T00:32:39;1.60;99.90
17236;DHT22;8734;59.272;17.780;2022-12-29T00:35:29;1.60;99.90
17236;DHT22;8734;59.272;17.780;2022-12-29T00:38:04;1.60;99.90
17236;DHT22;8734;59.272;17.780;2022-12-29T00:40:50;1.50;99.90
17236;DHT22;8734;59.272;17.780;2022-12-29T00:43:36;1.50;99.90
17236;DHT22;8734;59.272;17.780;2022-12-29T00:46:22;1.50;99.90
17236;DHT22;8734;59.272;17.780;2022-12-29T00:48:50;1.50;99.90
17236;DHT22;8734;59.272;17.780;2022-12-29T00:51:37;1.60;99.90
17236;DHT22;8734;59.272;17.780;2022-12-29T00:54:06;1.50;99.90
17236;DHT22;8734;59.272;17.780;2022-12-29T00:56:34;1.50;99.90
17236;DHT22;8734;59.272;17.780;2022-12-29T00:59:03;1.40;99.90
17236;DHT22;8734;59.272;17.780;2022-12-29T01:01:33;1.40;99.90
17236;DHT22;8734;59.272;17.780;2022-12-29T01:04:03;1.40;99.90
17236;DHT22;8734;59.272;17.780;2022-12-29T01:06:32;1.40;99.90
17236;DHT22;8734;59.272;17.780;2022-12-29T01:09:02;1.50;99.90
17236;DHT22;8734;59.272;17.780;2022-12-29T01:11:49;1.50;99.90
17236;DHT22;8734;59.272;17.780;2022-12-29T01:14:18;1.50;99.90
17236;DHT22;8734;59.272;17.780;2022-12-29T01:16:47;1.50;99.90
17236;DHT22;8734;59.272;17.780;2022-12-29T01:19:16;1.50;99.90
17236;DHT22;8734;59.272;17.780;2022-12-29T01:21:45;1.50;99.90
17236;DHT22;8734;59.272;17.780;2022-12-29T01:24:15;1.50;99.90
17236;DHT22;8734;59.272;17.780;2022-12-29T01:26:44;1.50;99.90
17236;DHT22;8734;59.272;17.780;2022-12-29T01:29:12;1.50;99.90
17236;DHT22;8734;59.272;17.780;2022-12-29T01:31:41;1.50;99.90
17236;DHT22;8734;59.272;17.780;2022-12-29T01:34:10;1.50;99.90
17236;DHT22;8734;59.272;17.780;2022-12-29T01:36:39;1.50;99.90
17236;DHT22;8734;59.272;17.780;2022-12-29T01:39:08;1.50;99.90
17236;DHT22;8734;59.272;17.780;2022-12-29T01:41:38;1.50;99.90
17236;DHT22;8734;59.272;17.780;2022-12-29T01:47:13;1.50;99.90
17236;DHT22;8734;59.272;17.780;2022-12-29T01:49:42;1.50;99.90
17236;DHT22;8734;59.272;17.780;2022-12-29T01:52:10;1.50;99.90
17236;DHT22;8734;59.272;17.780;2022-12-29T01:54:42;1.40;99.90
17236;DHT22;8734;59.272;17.780;2022-12-29T01:57:17;1.40;99.90
17236;DHT22;8734;59.272;17.780;2022-12-29T01:59:52;1.40;99.90
17236;DHT22;8734;59.272;17.780;2022-12-29T02:02:22;1.40;99.90
17236;DHT22;8734;59.272;17.780;2022-12-29T02:04:51;1.40;99.90
17236;DHT22;8734;59.272;17.780;2022-12-29T02:07:28;1.40;99.90
17236;DHT22;8734;59.272;17.780;2022-12-29T02:09:57;1.50;99.90
17236;DHT22;8734;59.272;17.780;2022-12-29T02:12:29;1.40;99.90
17236;DHT22;8734;59.272;17.780;2022-12-29T02:15:00;1.40;99.90
17236;DHT22;8734;59.272;17.780;2022-12-29T02:17:47;1.50;99.90
17236;DHT22;8734;59.272;17.780;2022-12-29T02:20:43;1.50;99.90
17236;DHT22;8734;59.272;17.780;2022-12-29T02:23:33;1.50;99.90
17236;DHT22;8734;59.272;17.780;2022-12-29T02:26:14;1.50;99.90
17236;DHT22;8734;59.272;17.780;2022-12-29T02:31:59;1.60;99.90
17236;DHT22;8734;59.272;17.780;2022-12-29T02:34:38;1.60;99.90
17236;DHT22;8734;59.272;17.780;2022-12-29T02:37:17;1.70;99.90
17236;DHT22;8734;59.272;17.780;2022-12-29T02:39:52;1.70;99.90
17236;DHT22;8734;59.272;17.780;2022-12-29T02:42:30;1.70;99.90
17236;DHT22;8734;59.272;17.780;2022-12-29T02:45:04;1.80;99.90
17236;DHT22;8734;59.272;17.780;2022-12-29T02:47:40;1.80;99.90
17236;DHT22;8734;59.272;17.780;2022-12-29T02:50:15;1.80;99.90
17236;DHT22;8734;59.272;17.780;2022-12-29T02:52:49;1.80;99.90
17236;DHT22;8734;59.272;17.780;2022-12-29T02:55:19;1.90;99.90
17236;DHT22;8734;59.272;17.780;2022-12-29T02:57:46;1.90;99.90
17236;DHT22;8734;59.272;17.780;2022-12-29T03:00:16;1.90;99.90
17236;DHT22;8734;59.272;17.780;2022-12-29T03:03:10;1.90;99.90
17236;DHT22;8734;59.272;17.780;2022-12-29T03:06:06;1.90;99.90
17236;DHT22;8734;59.272;17.780;2022-12-29T03:08:43;1.90;99.90
17236;DHT22;8734;59.272;17.780;2022-12-29T03:11:13;1.90;99.90
17236;DHT22;8734;59.272;17.780;2022-12-29T03:13:59;2.00;99.90
17236;DHT22;8734;59.272;17.780;2022-12-29T03:16:49;2.00;99.90
17236;DHT22;8734;59.272;17.780;2022-12-29T03:19:23;2.00;99.90
17236;DHT22;8734;59.272;17.780;2022-12-29T03:21:55;2.00;99.90
17236;DHT22;8734;59.272;17.780;2022-12-29T03:24:49;2.00;99.90
17236;DHT22;8734;59.272;17.780;2022-12-29T03:27:22;2.00;99.90
17236;DHT22;8734;59.272;17.780;2022-12-29T03:29:55;2.00;99.90
17236;DHT22;8734;59.272;17.780;2022-12-29T03:32:28;2.10;99.90
17236;DHT22;8734;59.272;17.780;2022-12-29T03:35:00;2.10;99.90
17236;DHT22;8734;59.272;17.780;2022-12-29T03:37:35;2.10;99.90
17236;DHT22;8734;59.272;17.780;2022-12-29T03:40:06;2.10;99.90
17236;DHT22;8734;59.272;17.780;2022-12-29T03:42:36;2.10;99.90
17236;DHT22;8734;59.272;17.780;2022-12-29T03:45:07;2.20;99.90
17236;DHT22;8734;59.272;17.780;2022-12-29T03:47:36;2.20;99.90
17236;DHT22;8734;59.272;17.780;2022-12-29T03:50:06;2.20;99.90
17236;DHT22;8734;59.272;17.780;2022-12-29T03:52:35;2.30;99.90
17236;DHT22;8734;59.272;17.780;2022-12-29T03:55:05;2.30;99.90
17236;DHT22;8734;59.272;17.780;2022-12-29T03:57:33;2.40;99.90
17236;DHT22;8734;59.272;17.780;2022-12-29T04:00:02;2.40;99.90
17236;DHT22;8734;59.272;17.780;2022-12-29T04:02:31;2.40;99.90
17236;DHT22;8734;59.272;17.780;2022-12-29T04:05:00;2.40;99.90
17236;DHT22;8734;59.272;17.780;2022-12-29T04:07:29;2.40;99.90
17236;DHT22;8734;59.272;17.780;2022-12-29T04:09:58;2.40;99.90
17236;DHT22;8734;59.272;17.780;2022-12-29T04:12:26;2.40;99.90
17236;DHT22;8734;59.272;17.780;2022-12-29T04:14:54;2.40;99.90
17236;DHT22;8734;59.272;17.780;2022-12-29T04:17:23;2.40;99.90
17236;DHT22;8734;59.272;17.780;2022-12-29T04:19:51;2.40;99.90
17236;DHT22;8734;59.272;17.780;2022-12-29T04:22:41;2.40;99.90
17236;DHT22;8734;59.272;17.780;2022-12-29T04:25:10;2.50;99.90
17236;DHT22;8734;59.272;17.780;2022-12-29T04:27:38;2.50;99.90
17236;DHT22;8734;59.272;17.780;2022-12-29T04:30:08;2.60;99.90
17236;DHT22;8734;59.272;17.780;2022-12-29T04:32:36;2.60;99.90
17236;DHT22;8734;59.272;17.780;2022-12-29T04:35:05;2.60;99.90
17236;DHT22;8734;59.272;17.780;2022-12-29T04:37:34;2.60;99.90
17236;DHT22;8734;59.272;17.780;2022-12-29T04:40:05;2.70;99.90
17236;DHT22;8734;59.272;17.780;2022-12-29T04:42:33;2.70;99.90
17236;DHT22;8734;59.272;17.780;2022-12-29T04:45:02;2.70;99.90
17236;DHT22;8734;59.272;17.780;2022-12-29T04:47:30;2.70;99.90
17236;DHT22;8734;59.272;17.780;2022-12-29T04:49:58;2.70;99.90
17236;DHT22;8734;59.272;17.780;2022-12-29T04:52:27;2.70;99.90
17236;DHT22;8734;59.272;17.780;2022-12-29T04:54:55;2.60;99.90
17236;DHT22;8734;59.272;17.780;2022-12-29T04:57:25;2.60;99.90
17236;DHT22;8734;59.272;17.780;2022-12-29T04:59:53;2.70;99.90
17236;DHT22;8734;59.272;17.780;2022-12-29T05:02:22;2.60;99.90
17236;DHT22;8734;59.272;17.780;2022-12-29T05:04:51;2.70;99.90
17236;DHT22;8734;59.272;17.780;2022-12-29T05:07:19;2.70;99.90
17236;DHT22;8734;59.272;17.780;2022-12-29T05:09:47;2.80;99.90
17236;DHT22;8734;59.272;17.780;2022-12-29T05:12:16;2.80;99.90
17236;DHT22;8734;59.272;17.780;2022-12-29T05:14:46;2.90;99.90
17236;DHT22;8734;59.272;17.780;2022-12-29T05:17:14;2.80;99.90
17236;DHT22;8734;59.272;17.780;2022-12-29T05:19:43;2.80;99.90
17236;DHT22;8734;59.272;17.780;2022-12-29T05:22:11;2.80;99.90
17236;DHT22;8734;59.272;17.780;2022-12-29T05:24:40;2.80;99.90
17236;DHT22;8734;59.272;17.780;2022-12-29T05:27:08;2.80;99.90
17236;DHT22;8734;59.272;17.780;2022-12-29T05:29:37;2.90;99.90
17236;DHT22;8734;59.272;17.780;2022-12-29T05:32:06;2.90;99.90
17236;DHT22;8734;59.272;17.780;2022-12-29T05:34:35;3.00;99.90
17236;DHT22;8734;59.272;17.780;2022-12-29T05:37:03;3.00;99.90
17236;DHT22;8734;59.272;17.780;2022-12-29T05:39:32;3.10;99.90
17236;DHT22;8734;59.272;17.780;2022-12-29T05:42:00;3.20;99.90
17236;DHT22;8734;59.272;17.780;2022-12-29T05:44:28;3.20;99.90
17236;DHT22;8734;59.272;17.780;2022-12-29T05:46:56;3.20;99.90
17236;DHT22;8734;59.272;17.780;2022-12-29T05:49:26;3.20;99.90
17236;DHT22;8734;59.272;17.780;2022-12-29T05:51:55;3.20;99.90
17236;DHT22;8734;59.272;17.780;2022-12-29T05:54:23;3.20;99.90
17236;DHT22;8734;59.272;17.780;2022-12-29T05:56:51;3.20;99.90
17236;DHT22;8734;59.272;17.780;2022-12-29T05:59:20;3.30;99.90
17236;DHT22;8734;59.272;17.780;2022-12-29T06:01:48;3.40;99.90
17236;DHT22;8734;59.272;17.780;2022-12-29T06:04:17;3.50;99.90
17236;DHT22;8734;59.272;17.780;2022-12-29T06:06:47;3.50;99.90
17236;DHT22;8734;59.272;17.780;2022-12-29T06:09:15;3.50;99.90
17236;DHT22;8734;59.272;17.780;2022-12-29T06:11:43;3.60;99.90
17236;DHT22;8734;59.272;17.780;2022-12-29T06:14:12;3.60;99.90
17236;DHT22;8734;59.272;17.780;2022-12-29T06:16:40;3.60;99.90
17236;DHT22;8734;59.272;17.780;2022-12-29T06:19:08;3.50;99.90
17236;DHT22;8734;59.272;17.780;2022-12-29T06:21:37;3.50;99.90
17236;DHT22;8734;59.272;17.780;2022-12-29T06:24:07;3.50;99.90
17236;DHT22;8734;59.272;17.780;2022-12-29T06:26:37;3.50;99.90
17236;DHT22;8734;59.272;17.780;2022-12-29T06:29:08;3.50;99.90
17236;DHT22;8734;59.272;17.780;2022-12-29T06:31:36;3.50;99.90
17236;DHT22;8734;59.272;17.780;2022-12-29T06:34:04;3.40;99.90
17236;DHT22;8734;59.272;17.780;2022-12-29T06:36:34;3.50;99.90
17236;DHT22;8734;59.272;17.780;2022-12-29T06:39:03;3.40;99.90
17236;DHT22;8734;59.272;17.780;2022-12-29T06:41:32;3.50;99.90
17236;DHT22;8734;59.272;17.780;2022-12-29T06:44:01;3.50;99.90
17236;DHT22;8734;59.272;17.780;2022-12-29T06:46:29;3.60;99.90
17236;DHT22;8734;59.272;17.780;2022-12-29T06:48:58;3.50;99.90
17236;DHT22;8734;59.272;17.780;2022-12-29T06:51:26;3.60;99.90
17236;DHT22;8734;59.272;17.780;2022-12-29T06:53:54;3.70;99.90
17236;DHT22;8734;59.272;17.780;2022-12-29T06:56:23;3.80;99.90
17236;DHT22;8734;59.272;17.780;2022-12-29T06:58:52;3.80;99.90
17236;DHT22;8734;59.272;17.780;2022-12-29T07:01:20;3.70;99.90
17236;DHT22;8734;59.272;17.780;2022-12-29T07:03:49;3.60;99.90
17236;DHT22;8734;59.272;17.780;2022-12-29T07:06:17;3.70;99.90
17236;DHT22;8734;59.272;17.780;2022-12-29T07:08:46;3.80;99.90
17236;DHT22;8734;59.272;17.780;2022-12-29T07:11:14;3.90;99.90
17236;DHT22;8734;59.272;17.780;2022-12-29T07:13:43;4.00;99.90
17236;DHT22;8734;59.272;17.780;2022-12-29T07:16:12;4.00;99.90
17236;DHT22;8734;59.272;17.780;2022-12-29T07:18:41;4.00;99.90
17236;DHT22;8734;59.272;17.780;2022-12-29T07:21:09;4.00;99.90
17236;DHT22;8734;59.272;17.780;2022-12-29T07:23:38;3.90;99.90
17236;DHT22;8734;59.272;17.780;2022-12-29T07:26:08;4.00;99.90
17236;DHT22;8734;59.272;17.780;2022-12-29T07:28:37;3.90;99.90
17236;DHT22;8734;59.272;17.780;2022-12-29T07:31:06;3.90;99.90
17236;DHT22;8734;59.272;17.780;2022-12-29T07:33:39;3.90;99.90
17236;DHT22;8734;59.272;17.780;2022-12-29T07:36:07;3.90;99.90
17236;DHT22;8734;59.272;17.780;2022-12-29T07:38:36;3.90;99.90
17236;DHT22;8734;59.272;17.780;2022-12-29T07:41:05;3.90;99.90
17236;DHT22;8734;59.272;17.780;2022-12-29T07:43:33;3.90;99.90
17236;DHT22;8734;59.272;17.780;2022-12-29T07:46:01;3.90;99.90
17236;DHT22;8734;59.272;17.780;2022-12-29T07:48:30;3.90;99.90
17236;DHT22;8734;59.272;17.780;2022-12-29T07:51:01;3.90;99.90
17236;DHT22;8734;59.272;17.780;2022-12-29T07:53:29;3.90;99.90
17236;DHT22;8734;59.272;17.780;2022-12-29T07:55:58;3.90;99.90
17236;DHT22;8734;59.272;17.780;2022-12-29T07:58:26;3.80;99.90
17236;DHT22;8734;59.272;17.780;2022-12-29T08:00:55;3.80;99.90
17236;DHT22;8734;59.272;17.780;2022-12-29T08:03:23;3.80;99.90
17236;DHT22;8734;59.272;17.780;2022-12-29T08:05:52;3.90;99.90
17236;DHT22;8734;59.272;17.780;2022-12-29T08:08:22;3.90;99.90
17236;DHT22;8734;59.272;17.780;2022-12-29T08:10:50;3.90;99.90
17236;DHT22;8734;59.272;17.780;2022-12-29T08:13:18;3.90;99.90
17236;DHT22;8734;59.272;17.780;2022-12-29T08:15:47;3.90;99.90
17236;DHT22;8734;59.272;17.780;2022-12-29T08:18:15;3.90;99.90
17236;DHT22;8734;59.272;17.780;2022-12-29T08:20:43;3.90;99.90
17236;DHT22;8734;59.272;17.780;2022-12-29T08:23:17;3.90;99.90
17236;DHT22;8734;59.272;17.780;2022-12-29T08:25:46;3.90;99.90
17236;DHT22;8734;59.272;17.780;2022-12-29T08:28:15;3.90;99.90
17236;DHT22;8734;59.272;17.780;2022-12-29T08:30:43;3.90;99.90
17236;DHT22;8734;59.272;17.780;2022-12-29T08:33:12;3.90;99.90
17236;DHT22;8734;59.272;17.780;2022-12-29T08:35:40;3.90;99.90
17236;DHT22;8734;59.272;17.780;2022-12-29T08:38:08;3.90;99.90
17236;DHT22;8734;59.272;17.780;2022-12-29T08:40:38;3.90;99.90
17236;DHT22;8734;59.272;17.780;2022-12-29T08:43:07;3.90;99.90
17236;DHT22;8734;59.272;17.780;2022-12-29T08:45:36;3.90;99.90
17236;DHT22;8734;59.272;17.780;2022-12-29T08:48:05;4.00;99.90
17236;DHT22;8734;59.272;17.780;2022-12-29T08:50:33;4.00;99.90
17236;DHT22;8734;59.272;17.780;2022-12-29T08:53:01;4.00;99.90
17236;DHT22;8734;59.272;17.780;2022-12-29T08:55:30;4.00;99.90
17236;DHT22;8734;59.272;17.780;2022-12-29T08:57:58;3.90;99.90
17236;DHT22;8734;59.272;17.780;2022-12-29T09:00:27;3.90;99.90
17236;DHT22;8734;59.272;17.780;2022-12-29T09:02:56;3.90;99.90
17236;DHT22;8734;59.272;17.780;2022-12-29T09:05:24;4.00;99.90
17236;DHT22;8734;59.272;17.780;2022-12-29T09:07:52;4.00;99.90
17236;DHT22;8734;59.272;17.780;2022-12-29T09:10:21;4.00;99.90
17236;DHT22;8734;59.272;17.780;2022-12-29T09:12:49;4.00;99.90
17236;DHT22;8734;59.272;17.780;2022-12-29T09:15:17;4.00;99.90
17236;DHT22;8734;59.272;17.780;2022-12-29T09:17:47;4.00;99.90
17236;DHT22;8734;59.272;17.780;2022-12-29T09:20:17;4.00;99.90
17236;DHT22;8734;59.272;17.780;2022-12-29T09:22:46;4.10;99.90
17236;DHT22;8734;59.272;17.780;2022-12-29T09:25:15;4.00;99.90
17236;DHT22;8734;59.272;17.780;2022-12-29T09:27:43;4.10;99.90
17236;DHT22;8734;59.272;17.780;2022-12-29T09:30:13;4.10;99.90
17236;DHT22;8734;59.272;17.780;2022-12-29T09:32:41;4.20;99.90
17236;DHT22;8734;59.272;17.780;2022-12-29T09:35:14;4.20;99.90
17236;DHT22;8734;59.272;17.780;2022-12-29T09:37:43;4.20;99.90
17236;DHT22;8734;59.272;17.780;2022-12-29T09:40:21;4.30;99.90
17236;DHT22;8734;59.272;17.780;2022-12-29T09:43:07;4.40;99.90
17236;DHT22;8734;59.272;17.780;2022-12-29T09:45:41;4.40;99.90
17236;DHT22;8734;59.272;17.780;2022-12-29T09:48:15;4.50;99.90
17236;DHT22;8734;59.272;17.780;2022-12-29T09:50:50;4.50;99.90
17236;DHT22;8734;59.272;17.780;2022-12-29T09:53:24;4.50;99.90
17236;DHT22;8734;59.272;17.780;2022-12-29T09:55:56;4.40;99.90
17236;DHT22;8734;59.272;17.780;2022-12-29T09:58:30;4.50;99.90
17236;DHT22;8734;59.272;17.780;2022-12-29T10:01:03;4.50;99.90
17236;DHT22;8734;59.272;17.780;2022-12-29T10:03:40;4.50;99.90
17236;DHT22;8734;59.272;17.780;2022-12-29T10:06:17;4.60;99.90
17236;DHT22;8734;59.272;17.780;2022-12-29T10:08:52;4.60;99.90
17236;DHT22;8734;59.272;17.780;2022-12-29T10:11:35;4.60;99.90
17236;DHT22;8734;59.272;17.780;2022-12-29T10:14:21;4.60;99.90
17236;DHT22;8734;59.272;17.780;2022-12-29T10:17:02;4.70;99.90
17236;DHT22;8734;59.272;17.780;2022-12-29T10:19:48;4.70;99.90
17236;DHT22;8734;59.272;17.780;2022-12-29T10:22:29;4.80;99.90
17236;DHT22;8734;59.272;17.780;2022-12-29T10:25:01;4.80;99.90
17236;DHT22;8734;59.272;17.780;2022-12-29T10:27:32;4.80;99.90
17236;DHT22;8734;59.272;17.780;2022-12-29T10:30:02;4.80;99.90
17236;DHT22;8734;59.272;17.780;2022-12-29T10:32:34;4.80;99.90
17236;DHT22;8734;59.272;17.780;2022-12-29T10:35:10;4.80;99.90
17236;DHT22;8734;59.272;17.780;2022-12-29T10:37:45;4.90;99.90
17236;DHT22;8734;59.272;17.780;2022-12-29T10:40:19;5.00;99.90
17236;DHT22;8734;59.272;17.780;2022-12-29T10:42:52;5.00;99.90
17236;DHT22;8734;59.272;17.780;2022-12-29T10:45:23;5.00;99.90
17236;DHT22;8734;59.272;17.780;2022-12-29T10:47:57;5.00;99.90
17236;DHT22;8734;59.272;17.780;2022-12-29T10:50:28;5.00;99.90
17236;DHT22;8734;59.272;17.780;2022-12-29T10:53:00;5.10;99.90
17236;DHT22;8734;59.272;17.780;2022-12-29T10:55:33;5.20;99.90
17236;DHT22;8734;59.272;17.780;2022-12-29T10:58:05;5.30;99.90
17236;DHT22;8734;59.272;17.780;2022-12-29T11:00:34;5.30;99.90
17236;DHT22;8734;59.272;17.780;2022-12-29T11:06:09;5.30;99.90
17236;DHT22;8734;59.272;17.780;2022-12-29T11:08:58;5.30;99.90
17236;DHT22;8734;59.272;17.780;2022-12-29T11:11:32;5.30;99.90
17236;DHT22;8734;59.272;17.780;2022-12-29T11:14:08;5.30;99.90
17236;DHT22;8734;59.272;17.780;2022-12-29T11:16:38;5.30;99.90
17236;DHT22;8734;59.272;17.780;2022-12-29T11:19:20;5.40;99.90
17236;DHT22;8734;59.272;17.780;2022-12-29T11:21:49;5.40;99.90
17236;DHT22;8734;59.272;17.780;2022-12-29T11:24:24;5.40;99.90
17236;DHT22;8734;59.272;17.780;2022-12-29T11:26:54;5.40;99.90
17236;DHT22;8734;59.272;17.780;2022-12-29T11:29:26;5.50;99.90
17236;DHT22;8734;59.272;17.780;2022-12-29T11:31:56;5.50;99.90
17236;DHT22;8734;59.272;17.780;2022-12-29T11:34:31;5.50;99.90
17236;DHT22;8734;59.272;17.780;2022-12-29T11:37:03;5.50;99.90
17236;DHT22;8734;59.272;17.780;2022-12-29T11:39:39;5.50;99.90
17236;DHT22;8734;59.272;17.780;2022-12-29T11:42:14;5.50;99.90
17236;DHT22;8734;59.272;17.780;2022-12-29T11:44:44;5.50;99.90
17236;DHT22;8734;59.272;17.780;2022-12-29T11:47:24;5.50;99.90
17236;DHT22;8734;59.272;17.780;2022-12-29T11:49:56;5.50;99.90
17236;DHT22;8734;59.272;17.780;2022-12-29T11:52:27;5.50;99.90
17236;DHT22;8734;59.272;17.780;2022-12-29T11:54:57;5.50;99.90
17236;DHT22;8734;59.272;17.780;2022-12-29T11:57:28;5.50;99.90
17236;DHT22;8734;59.272;17.780;2022-12-29T11:59:58;5.60;99.90
17236;DHT22;8734;59.272;17.780;2022-12-29T12:02:42;5.60;99.90
17236;DHT22;8734;59.272;17.780;2022-12-29T12:05:21;5.60;99.90
17236;DHT22;8734;59.272;17.780;2022-12-29T12:07:54;5.60;99.90
17236;DHT22;8734;59.272;17.780;2022-12-29T12:10:29;5.60;99.90
17236;DHT22;8734;59.272;17.780;2022-12-29T12:13:04;5.70;99.90
17236;DHT22;8734;59.272;17.780;2022-12-29T12:15:38;5.60;99.90
17236;DHT22;8734;59.272;17.780;2022-12-29T12:18:15;5.60;99.90
17236;DHT22;8734;59.272;17.780;2022-12-29T12:20:48;5.60;99.90
17236;DHT22;8734;59.272;17.780;2022-12-29T12:23:28;5.60;99.90
17236;DHT22;8734;59.272;17.780;2022-12-29T12:26:08;5.60;99.90
17236;DHT22;8734;59.272;17.780;2022-12-29T12:28:42;5.70;99.90
17236;DHT22;8734;59.272;17.780;2022-12-29T12:31:20;5.70;99.90
17236;DHT22;8734;59.272;17.780;2022-12-29T12:33:54;5.70;99.90
17236;DHT22;8734;59.272;17.780;2022-12-29T12:36:45;5.70;99.90
17236;DHT22;8734;59.272;17.780;2022-12-29T12:39:22;5.70;99.90
17236;DHT22;8734;59.272;17.780;2022-12-29T12:42:03;5.70;99.90
17236;DHT22;8734;59.272;17.780;2022-12-29T12:44:41;5.70;99.90
17236;DHT22;8734;59.272;17.780;2022-12-29T12:47:30;5.70;99.90
17236;DHT22;8734;59.272;17.780;2022-12-29T12:50:27;5.80;99.90
17236;DHT22;8734;59.272;17.780;2022-12-29T12:53:19;5.80;99.90
17236;DHT22;8734;59.272;17.780;2022-12-29T12:58:54;5.80;99.90
17236;DHT22;8734;59.272;17.780;2022-12-29T13:01:38;5.80;99.90
17236;DHT22;8734;59.272;17.780;2022-12-29T13:04:37;5.90;99.90
17236;DHT22;8734;59.272;17.780;2022-12-29T13:07:17;5.90;99.90
17236;DHT22;8734;59.272;17.780;2022-12-29T13:10:01;5.80;99.90
17236;DHT22;8734;59.272;17.780;2022-12-29T13:12:38;5.80;99.90
17236;DHT22;8734;59.272;17.780;2022-12-29T13:15:18;5.80;99.90
17236;DHT22;8734;59.272;17.780;2022-12-29T13:17:56;5.80;99.90
17236;DHT22;8734;59.272;17.780;2022-12-29T13:20:31;5.90;99.90
17236;DHT22;8734;59.272;17.780;2022-12-29T13:23:08;5.80;99.90
17236;DHT22;8734;59.272;17.780;2022-12-29T13:25:47;5.90;99.90
17236;DHT22;8734;59.272;17.780;2022-12-29T13:28:20;5.90;99.90
17236;DHT22;8734;59.272;17.780;2022-12-29T13:30:57;6.00;99.90
17236;DHT22;8734;59.272;17.780;2022-12-29T13:33:35;6.00;99.90
17236;DHT22;8734;59.272;17.780;2022-12-29T13:36:12;6.00;99.90
17236;DHT22;8734;59.272;17.780;2022-12-29T13:38:45;5.90;99.90
17236;DHT22;8734;59.272;17.780;2022-12-29T13:41:19;6.00;99.90
17236;DHT22;8734;59.272;17.780;2022-12-29T13:43:50;6.00;99.90
17236;DHT22;8734;59.272;17.780;2022-12-29T13:46:25;6.10;99.90
17236;DHT22;8734;59.272;17.780;2022-12-29T13:48:58;6.10;99.90
17236;DHT22;8734;59.272;17.780;2022-12-29T13:51:28;6.10;99.90
17236;DHT22;8734;59.272;17.780;2022-12-29T13:54:17;6.10;99.90
17236;DHT22;8734;59.272;17.780;2022-12-29T13:56:52;6.10;99.90
17236;DHT22;8734;59.272;17.780;2022-12-29T13:59:31;6.00;99.90
17236;DHT22;8734;59.272;17.780;2022-12-29T14:02:21;6.00;99.90
17236;DHT22;8734;59.272;17.780;2022-12-29T14:04:56;6.10;99.90
17236;DHT22;8734;59.272;17.780;2022-12-29T14:07:25;6.00;99.90
17236;DHT22;8734;59.272;17.780;2022-12-29T14:09:55;6.00;99.90
17236;DHT22;8734;59.272;17.780;2022-12-29T14:12:36;6.00;99.90
17236;DHT22;8734;59.272;17.780;2022-12-29T14:15:22;6.00;99.90
17236;DHT22;8734;59.272;17.780;2022-12-29T14:18:14;6.00;99.90
17236;DHT22;8734;59.272;17.780;2022-12-29T14:20:52;6.00;99.90
17236;DHT22;8734;59.272;17.780;2022-12-29T14:23:35;6.00;99.90
17236;DHT22;8734;59.272;17.780;2022-12-29T14:26:15;6.00;99.90
17236;DHT22;8734;59.272;17.780;2022-12-29T14:28:46;6.00;99.90
17236;DHT22;8734;59.272;17.780;2022-12-29T14:31:44;6.00;99.90
17236;DHT22;8734;59.272;17.780;2022-12-29T14:34:34;6.00;99.90
17236;DHT22;8734;59.272;17.780;2022-12-29T14:37:23;6.00;99.90
17236;DHT22;8734;59.272;17.780;2022-12-29T14:40:03;5.90;99.90
17236;DHT22;8734;59.272;17.780;2022-12-29T14:42:32;5.90;99.90
17236;DHT22;8734;59.272;17.780;2022-12-29T14:45:06;6.00;99.90
17236;DHT22;8734;59.272;17.780;2022-12-29T14:47:38;6.00;99.90
17236;DHT22;8734;59.272;17.780;2022-12-29T14:50:14;6.00;99.90
17236;DHT22;8734;59.272;17.780;2022-12-29T14:52:46;5.90;99.90
17236;DHT22;8734;59.272;17.780;2022-12-29T14:55:38;5.90;99.90
17236;DHT22;8734;59.272;17.780;2022-12-29T14:58:12;5.90;99.90
17236;DHT22;8734;59.272;17.780;2022-12-29T15:00:42;5.90;99.90
17236;DHT22;8734;59.272;17.780;2022-12-29T15:03:16;5.90;99.90
17236;DHT22;8734;59.272;17.780;2022-12-29T15:05:49;5.90;99.90
17236;DHT22;8734;59.272;17.780;2022-12-29T15:08:21;5.90;99.90
17236;DHT22;8734;59.272;17.780;2022-12-29T15:10:54;5.90;99.90
17236;DHT22;8734;59.272;17.780;2022-12-29T15:13:31;5.90;99.90
17236;DHT22;8734;59.272;17.780;2022-12-29T15:16:00;5.90;99.90
17236;DHT22;8734;59.272;17.780;2022-12-29T15:18:30;5.90;99.90
17236;DHT22;8734;59.272;17.780;2022-12-29T15:21:01;5.90;99.90
17236;DHT22;8734;59.272;17.780;2022-12-29T15:23:31;5.90;99.90
17236;DHT22;8734;59.272;17.780;2022-12-29T15:26:02;5.90;99.90
17236;DHT22;8734;59.272;17.780;2022-12-29T15:28:38;5.90;99.90
17236;DHT22;8734;59.272;17.780;2022-12-29T15:31:11;5.90;99.90
17236;DHT22;8734;59.272;17.780;2022-12-29T15:33:41;5.90;99.90
17236;DHT22;8734;59.272;17.780;2022-12-29T15:36:13;5.90;99.90
17236;DHT22;8734;59.272;17.780;2022-12-29T15:38:41;5.90;99.90
17236;DHT22;8734;59.272;17.780;2022-12-29T15:41:22;6.00;99.90
17236;DHT22;8734;59.272;17.780;2022-12-29T15:44:05;5.90;99.90
17236;DHT22;8734;59.272;17.780;2022-12-29T15:46:37;5.90;99.90
17236;DHT22;8734;59.272;17.780;2022-12-29T15:49:07;6.00;99.90
17236;DHT22;8734;59.272;17.780;2022-12-29T15:51:38;6.00;99.90
17236;DHT22;8734;59.272;17.780;2022-12-29T15:54:15;6.00;99.90
17236;DHT22;8734;59.272;17.780;2022-12-29T15:56:44;6.10;99.90
17236;DHT22;8734;59.272;17.780;2022-12-29T15:59:24;6.10;99.90
17236;DHT22;8734;59.272;17.780;2022-12-29T16:01:53;6.10;99.90
17236;DHT22;8734;59.272;17.780;2022-12-29T16:04:23;6.10;99.90
17236;DHT22;8734;59.272;17.780;2022-12-29T16:06:59;6.10;99.90
17236;DHT22;8734;59.272;17.780;2022-12-29T16:09:32;6.10;99.90
17236;DHT22;8734;59.272;17.780;2022-12-29T16:12:04;6.10;99.90
17236;DHT22;8734;59.272;17.780;2022-12-29T16:14:37;6.10;99.90
17236;DHT22;8734;59.272;17.780;2022-12-29T16:17:09;6.10;99.90
17236;DHT22;8734;59.272;17.780;2022-12-29T16:19:40;6.10;99.90
17236;DHT22;8734;59.272;17.780;2022-12-29T16:22:11;6.20;99.90
17236;DHT22;8734;59.272;17.780;2022-12-29T16:24:40;6.10;99.90
17236;DHT22;8734;59.272;17.780;2022-12-29T16:27:14;6.20;99.90
17236;DHT22;8734;59.272;17.780;2022-12-29T16:29:46;6.10;99.90
17236;DHT22;8734;59.272;17.780;2022-12-29T16:32:26;6.20;99.90
17236;DHT22;8734;59.272;17.780;2022-12-29T16:35:11;6.10;99.90